createdAt,value
2019-02-27T00:01:49.926Z,64.53
2019-02-27T00:04:52.517Z,57.67
2019-02-27T00:07:55.000Z,61.50
2019-02-27T00:10:57.258Z,54.17
2019-02-27T00:13:59.134Z,57.27
2019-02-27T00:17:01.051Z,57.33
2019-02-27T00:20:05.454Z,57.90
2019-02-27T00:23:08.662Z,53.27
2019-02-27T00:26:10.570Z,56.73
2019-02-27T00:29:12.482Z,54.93
2019-02-27T00:32:15.754Z,60.03
2019-02-27T00:35:19.325Z,59.00
2019-02-27T00:38:22.744Z,57.63
2019-02-27T00:41:25.139Z,62.10
2019-02-27T00:44:27.097Z,58.63
2019-02-27T00:47:29.112Z,57.57
2019-02-27T00:50:31.017Z,58.77
2019-02-27T00:53:32.905Z,55.70
2019-02-27T00:56:34.801Z,58.50
2019-02-27T00:59:36.776Z,57.07
2019-02-27T01:02:38.664Z,57.73
2019-02-27T01:05:41.128Z,56.27
2019-02-27T01:08:43.945Z,54.57
2019-02-27T01:11:46.010Z,62.30
2019-02-27T01:14:47.897Z,54.63
2019-02-27T01:17:49.819Z,56.50
2019-02-27T01:20:51.744Z,59.10
2019-02-27T01:23:54.113Z,61.33
2019-02-27T01:26:56.014Z,55.73
2019-02-27T01:29:58.350Z,56.77
2019-02-27T01:33:03.935Z,56.30
2019-02-27T01:36:03.970Z,57.00
2019-02-27T01:39:09.051Z,57.37
2019-02-27T01:42:10.989Z,52.37
2019-02-27T01:45:14.388Z,55.47
2019-02-27T01:48:16.317Z,56.27
2019-02-27T01:51:18.303Z,54.70
2019-02-27T01:54:20.240Z,55.07
2019-02-27T01:57:22.157Z,56.93
2019-02-27T02:00:24.102Z,56.03
2019-02-27T02:03:25.974Z,58.20
2019-02-27T02:06:31.944Z,56.30
2019-02-27T02:09:33.801Z,55.83
2019-02-27T02:12:35.747Z,57.53
2019-02-27T02:15:50.222Z,54.97
2019-02-27T02:19:12.310Z,58.07
2019-02-27T02:22:26.683Z,57.53
2019-02-27T02:25:41.500Z,56.13
2019-02-27T02:29:03.777Z,57.40
2019-02-27T02:32:27.378Z,57.27
2019-02-27T02:35:35.715Z,56.83
2019-02-27T02:38:47.258Z,63.27
2019-02-27T02:42:24.273Z,61.77
2019-02-27T02:45:58.304Z,60.03
2019-02-27T02:49:07.850Z,56.37
2019-02-27T02:52:14.265Z,61.33
2019-02-27T02:55:22.901Z,60.70
2019-02-27T02:58:37.645Z,59.50
2019-02-27T03:01:49.377Z,59.80
2019-02-27T03:04:56.066Z,60.47
2019-02-27T03:08:04.496Z,58.90
2019-02-27T03:11:19.020Z,58.97
2019-02-27T03:14:25.945Z,57.13
2019-02-27T03:18:02.255Z,56.77
2019-02-27T03:21:16.617Z,58.07
2019-02-27T03:24:28.216Z,61.30
2019-02-27T03:27:39.978Z,60.50
2019-02-27T03:30:48.390Z,61.87
2019-02-27T03:33:54.051Z,59.00
2019-02-27T03:37:02.196Z,58.43
2019-02-27T03:40:11.808Z,62.37
2019-02-27T03:43:17.569Z,71.07
2019-02-27T03:46:31.865Z,63.90
2019-02-27T03:50:01.709Z,59.07
2019-02-27T03:53:28.500Z,58.33
2019-02-27T03:56:46.116Z,58.90
2019-02-27T04:00:00.579Z,57.20
2019-02-27T04:03:09.062Z,61.20
2019-02-27T04:06:21.173Z,58.03
2019-02-27T04:09:21.459Z,59.67
2019-02-27T04:12:23.566Z,57.53
2019-02-27T04:15:25.512Z,56.83
2019-02-27T04:18:28.431Z,58.77
2019-02-27T04:21:30.604Z,65.37
2019-02-27T04:24:32.540Z,64.07
2019-02-27T04:27:34.660Z,61.57
2019-02-27T04:30:36.572Z,62.33
2019-02-27T04:33:38.495Z,65.90
2019-02-27T04:36:40.368Z,62.87
2019-02-27T04:39:42.310Z,67.07
2019-02-27T04:42:44.218Z,66.03
2019-02-27T04:45:46.779Z,59.07
2019-02-27T04:48:49.821Z,64.83
2019-02-27T04:51:51.757Z,62.77
2019-02-27T04:54:53.715Z,63.60
2019-02-27T04:57:55.612Z,65.33
2019-02-27T05:00:59.349Z,68.27
2019-02-27T05:04:02.174Z,72.00
2019-02-27T05:07:04.359Z,74.40
2019-02-27T05:10:07.961Z,83.43
2019-02-27T05:13:09.971Z,96.67
2019-02-27T05:16:14.117Z,73.00
2019-02-27T05:19:15.688Z,85.40
2019-02-27T05:22:17.621Z,83.70
2019-02-27T05:25:19.486Z,80.07
2019-02-27T05:28:21.430Z,90.20
2019-02-27T05:31:23.342Z,89.27
2019-02-27T05:34:25.320Z,71.43
2019-02-27T05:37:27.295Z,74.27
2019-02-27T05:40:29.875Z,90.30
2019-02-27T05:43:31.741Z,78.60
2019-02-27T05:46:37.985Z,97.30
2019-02-27T05:49:37.646Z,84.87
2019-02-27T05:52:39.643Z,91.63
2019-02-27T05:55:41.595Z,87.93
2019-02-27T05:58:43.498Z,87.37
2019-02-27T06:01:45.443Z,80.13
2019-02-27T06:04:47.358Z,83.50
2019-02-27T06:07:49.510Z,90.87
2019-02-27T06:10:55.004Z,86.20
2019-02-27T06:13:55.694Z,96.10
2019-02-27T06:16:57.570Z,80.23
2019-02-27T06:19:59.490Z,78.90
2019-02-27T06:23:04.104Z,84.10
2019-02-27T06:26:05.316Z,89.70
2019-02-27T06:29:07.251Z,91.17
2019-02-27T06:32:11.915Z,100.30
2019-02-27T06:35:14.277Z,103.90
2019-02-27T06:38:16.171Z,99.80
2019-02-27T06:41:18.303Z,79.47
2019-02-27T06:44:20.397Z,92.63
2019-02-27T06:47:22.320Z,101.40
2019-02-27T06:50:25.454Z,94.47
2019-02-27T06:53:28.285Z,75.83
2019-02-27T06:56:30.260Z,81.97
2019-02-27T06:59:32.084Z,95.43
2019-02-27T07:02:34.182Z,94.20
2019-02-27T07:05:36.103Z,77.70
2019-02-27T07:08:38.715Z,77.57
2019-02-27T07:11:44.885Z,69.00
2019-02-27T07:14:44.876Z,67.83
2019-02-27T07:17:46.905Z,71.37
2019-02-27T07:20:48.896Z,61.53
2019-02-27T07:23:50.839Z,70.83
2019-02-27T07:26:54.377Z,73.20
2019-02-27T07:29:56.304Z,65.10
2019-02-27T07:32:58.238Z,64.90
2019-02-27T07:36:03.310Z,69.33
2019-02-27T07:39:04.990Z,67.40
2019-02-27T07:42:08.561Z,66.00
2019-02-27T07:45:18.808Z,70.67
2019-02-27T07:48:20.887Z,67.03
2019-02-27T07:51:23.366Z,65.97
2019-02-27T07:54:28.801Z,61.63
2019-02-27T07:57:29.742Z,66.03
2019-02-27T08:00:31.684Z,61.70
2019-02-27T08:03:33.661Z,65.73
2019-02-27T08:06:37.736Z,66.27
2019-02-27T08:09:39.520Z,64.87
2019-02-27T08:12:41.436Z,61.83
2019-02-27T08:15:43.387Z,56.27
2019-02-27T08:18:45.265Z,62.77
2019-02-27T08:21:47.282Z,57.57
2019-02-27T08:24:49.299Z,60.50
2019-02-27T08:27:51.674Z,56.73
2019-02-27T08:30:53.571Z,60.57
2019-02-27T08:33:55.505Z,63.40
2019-02-27T08:36:57.468Z,59.23
2019-02-27T08:39:59.404Z,57.83
2019-02-27T08:43:01.270Z,57.97
2019-02-27T08:46:03.227Z,64.17
2019-02-27T08:49:05.149Z,55.93
2019-02-27T08:52:08.497Z,60.57
2019-02-27T08:55:19.800Z,59.13
2019-02-27T08:58:17.715Z,58.17
2019-02-27T09:01:21.759Z,61.50
2019-02-27T09:04:23.473Z,57.83
2019-02-27T09:07:25.411Z,59.03
2019-02-27T09:10:30.518Z,59.80
2019-02-27T09:13:31.130Z,59.60
2019-02-27T09:16:33.035Z,57.47
2019-02-27T09:19:34.960Z,59.83
2019-02-27T09:22:37.468Z,59.77
2019-02-27T09:25:40.150Z,57.13
2019-02-27T09:28:44.536Z,54.90
2019-02-27T09:31:50.718Z,59.40
2019-02-27T09:34:50.028Z,61.93
2019-02-27T09:37:52.119Z,59.80
2019-02-27T09:40:54.134Z,64.00
2019-02-27T09:43:58.634Z,65.87
2019-02-27T09:46:59.966Z,66.37
2019-02-27T09:50:01.827Z,67.77
2019-02-27T09:53:04.437Z,63.10
2019-02-27T09:56:06.525Z,61.57
2019-02-27T09:59:08.439Z,61.23
2019-02-27T10:02:12.450Z,60.77
2019-02-27T10:05:14.176Z,60.50
2019-02-27T10:08:16.238Z,56.33
2019-02-27T10:11:19.550Z,56.30
2019-02-27T10:14:21.896Z,61.97
2019-02-27T10:17:23.794Z,56.47
2019-02-27T10:20:25.775Z,53.60
2019-02-27T10:23:30.450Z,49.80
2019-02-27T10:26:31.721Z,46.40
2019-02-27T10:29:34.639Z,39.63
2019-02-27T10:32:37.254Z,40.90
2019-02-27T10:35:39.198Z,28.53
2019-02-27T10:38:41.985Z,21.30
2019-02-27T10:41:44.907Z,22.27
2019-02-27T10:44:47.069Z,20.80
2019-02-27T10:47:49.034Z,21.77
2019-02-27T10:50:51.007Z,21.30
2019-02-27T10:53:52.993Z,18.23
2019-02-27T10:56:56.350Z,17.93
2019-02-27T10:59:58.858Z,15.87
2019-02-27T11:03:00.829Z,12.70
2019-02-27T11:06:02.763Z,11.23
2019-02-27T11:09:07.516Z,11.83
2019-02-27T11:12:11.283Z,8.83
2019-02-27T11:15:23.372Z,9.53
2019-02-27T11:18:25.332Z,8.47
2019-02-27T11:21:27.257Z,6.93
2019-02-27T11:24:29.178Z,6.20
2019-02-27T11:27:31.132Z,6.80
2019-02-27T11:30:40.739Z,7.03
2019-02-27T11:33:42.657Z,6.73
2019-02-27T11:36:44.676Z,5.40
2019-02-27T11:39:46.543Z,6.27
2019-02-27T11:42:48.443Z,5.03
2019-02-27T11:45:50.434Z,4.27
2019-02-27T11:48:52.347Z,5.40
2019-02-27T11:51:56.997Z,4.73
2019-02-27T11:54:59.466Z,4.07
2019-02-27T11:58:05.319Z,5.33
2019-02-27T12:01:06.607Z,5.23
2019-02-27T12:04:08.563Z,5.17
2019-02-27T12:07:12.241Z,5.40
2019-02-27T12:10:16.410Z,5.03
2019-02-27T12:13:18.340Z,5.30
2019-02-27T12:16:20.248Z,4.67
2019-02-27T12:19:22.170Z,5.00
2019-02-27T12:22:24.120Z,5.13
2019-02-27T12:25:28.964Z,5.20
2019-02-27T12:28:29.876Z,4.50
2019-02-27T12:31:31.788Z,4.53
2019-02-27T12:34:34.074Z,4.93
2019-02-27T12:37:37.766Z,4.47
2019-02-27T12:40:39.693Z,5.03
2019-02-27T12:43:42.407Z,4.30
2019-02-27T12:46:45.331Z,3.33
2019-02-27T12:49:47.350Z,2.67
2019-02-27T12:52:49.557Z,3.33
2019-02-27T12:55:51.645Z,2.57
2019-02-27T12:58:58.352Z,2.80
2019-02-27T13:01:57.480Z,2.43
2019-02-27T13:04:59.417Z,2.50
2019-02-27T13:08:01.547Z,3.07
2019-02-27T13:11:05.236Z,2.70
2019-02-27T13:14:07.478Z,2.33
2019-02-27T13:17:09.441Z,2.10
2019-02-27T13:20:17.019Z,2.70
2019-02-27T13:23:20.514Z,2.70
2019-02-27T13:26:22.461Z,2.73
2019-02-27T13:29:24.453Z,2.87
2019-02-27T13:32:27.578Z,2.93
2019-02-27T13:35:29.729Z,2.67
2019-02-27T13:38:31.713Z,3.37
2019-02-27T13:41:33.660Z,2.50
2019-02-27T13:44:35.673Z,2.40
2019-02-27T13:47:37.596Z,2.40
2019-02-27T13:50:39.609Z,2.47
2019-02-27T13:53:41.555Z,3.20
2019-02-27T13:56:43.569Z,2.17
2019-02-27T13:59:45.639Z,2.30
2019-02-27T14:02:47.798Z,3.00
2019-02-27T14:05:49.755Z,2.37
2019-02-27T14:08:51.605Z,3.63
2019-02-27T14:11:53.523Z,2.33
2019-02-27T14:14:55.941Z,3.03
2019-02-27T14:17:58.219Z,1.97
2019-02-27T14:21:01.644Z,2.40
2019-02-27T14:24:04.664Z,2.27
2019-02-27T14:27:06.752Z,2.10
2019-02-27T14:30:15.392Z,2.83
2019-02-27T14:33:19.394Z,2.43
2019-02-27T14:36:21.973Z,2.40
2019-02-27T14:39:23.992Z,2.60
2019-02-27T14:42:25.995Z,3.20
2019-02-27T14:45:27.890Z,2.83
2019-02-27T14:48:30.030Z,3.37
2019-02-27T14:51:31.953Z,4.03
2019-02-27T14:54:33.927Z,2.63
2019-02-27T14:57:37.326Z,3.60
2019-02-27T15:00:41.012Z,2.50
2019-02-27T15:03:43.206Z,2.77
2019-02-27T15:06:46.095Z,2.20
2019-02-27T15:09:48.289Z,2.40
2019-02-27T15:12:53.861Z,2.10
2019-02-27T15:15:54.052Z,2.00
2019-02-27T15:18:56.144Z,3.10
2019-02-27T15:21:58.061Z,3.17
2019-02-27T15:25:00.159Z,4.67
2019-02-27T15:28:02.313Z,2.77
2019-02-27T15:31:04.481Z,2.87
2019-02-27T15:34:11.760Z,2.97
2019-02-27T15:37:11.036Z,2.90
2019-02-27T15:40:15.724Z,3.00
2019-02-27T15:43:18.174Z,3.17
2019-02-27T15:46:21.937Z,3.73
2019-02-27T15:49:24.698Z,3.27
2019-02-27T15:52:26.741Z,3.40
2019-02-27T15:55:32.849Z,4.03
2019-02-27T15:58:32.887Z,3.53
2019-02-27T16:01:35.000Z,4.83
2019-02-27T16:04:36.900Z,4.03
2019-02-27T16:07:38.988Z,4.63
2019-02-27T16:10:43.666Z,4.83
2019-02-27T16:13:44.853Z,4.63
2019-02-27T16:16:47.626Z,7.10
2019-02-27T16:19:50.228Z,6.40
2019-02-27T16:22:52.139Z,5.63
2019-02-27T16:25:56.434Z,5.67
2019-02-27T16:28:58.096Z,7.87
2019-02-27T16:32:00.108Z,8.90
2019-02-27T16:35:07.899Z,7.53
2019-02-27T16:38:08.660Z,11.43
2019-02-27T16:41:11.276Z,16.93
2019-02-27T16:44:13.389Z,19.90
2019-02-27T16:47:19.419Z,23.47
2019-02-27T16:50:24.789Z,28.50
2019-02-27T16:53:26.680Z,31.73
2019-02-27T16:56:28.581Z,31.80
2019-02-27T16:59:30.615Z,29.90
2019-02-27T17:02:35.451Z,30.13
2019-02-27T17:05:36.397Z,26.10
2019-02-27T17:08:38.464Z,24.77
2019-02-27T17:11:40.430Z,23.20
2019-02-27T17:14:42.391Z,18.33
2019-02-27T17:17:44.333Z,20.13
2019-02-27T17:20:47.299Z,19.80
2019-02-27T17:23:49.524Z,28.27
2019-02-27T17:26:51.530Z,29.07
2019-02-27T17:29:53.644Z,28.77
2019-02-27T17:32:56.516Z,29.13
2019-02-27T17:35:59.320Z,27.73
2019-02-27T17:39:01.989Z,26.57
2019-02-27T17:42:06.287Z,22.33
2019-02-27T17:45:14.582Z,25.07
2019-02-27T17:48:16.597Z,25.40
2019-02-27T17:51:18.624Z,26.10
2019-02-27T17:54:22.349Z,26.73
2019-02-27T17:57:28.016Z,30.67
2019-02-27T18:00:32.184Z,29.60
2019-02-27T18:03:36.632Z,31.67
2019-02-27T18:06:38.119Z,30.50
2019-02-27T18:09:42.984Z,32.67
2019-02-27T18:12:44.929Z,33.23
2019-02-27T18:15:46.894Z,38.80
2019-02-27T18:18:51.282Z,38.17
2019-02-27T18:21:53.205Z,40.70
2019-02-27T18:24:55.192Z,43.67
2019-02-27T18:27:59.589Z,45.07
2019-02-27T18:31:05.193Z,42.33
2019-02-27T18:34:07.303Z,42.00
2019-02-27T18:37:09.282Z,42.60
2019-02-27T18:40:18.220Z,42.87
2019-02-27T18:43:20.162Z,41.30
2019-02-27T18:46:24.854Z,41.43
2019-02-27T18:49:27.085Z,43.40
2019-02-27T18:52:29.024Z,43.57
2019-02-27T18:55:32.182Z,41.03
2019-02-27T18:58:35.781Z,41.83
2019-02-27T19:01:37.873Z,40.60
2019-02-27T19:04:39.876Z,40.20
2019-02-27T19:07:44.377Z,41.00
2019-02-27T19:10:46.375Z,43.70
2019-02-27T19:13:48.331Z,43.53
2019-02-27T19:16:52.110Z,47.33
2019-02-27T19:19:55.698Z,47.00
2019-02-27T19:23:00.349Z,43.37
2019-02-27T19:26:02.678Z,44.50
2019-02-27T19:29:05.845Z,46.30
2019-02-27T19:32:09.259Z,43.80
2019-02-27T19:35:11.651Z,42.97
2019-02-27T19:38:13.873Z,42.10
2019-02-27T19:41:22.675Z,43.93
2019-02-27T19:44:29.249Z,40.27
2019-02-27T19:47:34.105Z,41.43
2019-02-27T19:50:37.217Z,40.77
2019-02-27T19:53:39.625Z,39.37
2019-02-27T19:56:43.955Z,39.07
2019-02-27T19:59:46.075Z,40.83
2019-02-27T20:02:48.260Z,39.93
2019-02-27T20:05:53.260Z,39.50
2019-02-27T20:08:56.092Z,40.07
2019-02-27T20:11:59.324Z,38.73
2019-02-27T20:15:08.342Z,39.73
2019-02-27T20:18:13.984Z,38.80
2019-02-27T20:21:19.692Z,40.93
2019-02-27T20:24:21.596Z,42.03
2019-02-27T20:27:25.887Z,43.07
2019-02-27T20:30:30.156Z,46.93
2019-02-27T20:33:34.261Z,52.13
2019-02-27T20:36:35.996Z,57.03
2019-02-27T20:39:39.772Z,60.33
2019-02-27T20:42:50.041Z,56.83
2019-02-27T20:45:50.073Z,57.00
2019-02-27T20:48:52.618Z,54.53
2019-02-27T20:51:54.607Z,53.07
2019-02-27T20:54:58.919Z,42.77
2019-02-27T20:58:02.230Z,44.03
2019-02-27T21:01:10.030Z,44.47
2019-02-27T21:04:11.350Z,44.20
2019-02-27T21:07:21.885Z,42.20
2019-02-27T21:10:25.117Z,40.90
2019-02-27T21:13:28.640Z,46.47
2019-02-27T21:16:30.663Z,44.57
2019-02-27T21:19:33.844Z,46.93
2019-02-27T21:22:36.429Z,44.13
2019-02-27T21:25:38.435Z,44.23
2019-02-27T21:28:40.507Z,43.93
2019-02-27T21:31:42.423Z,41.57
2019-02-27T21:34:44.393Z,42.80
2019-02-27T21:37:50.852Z,40.20
2019-02-27T21:40:53.540Z,40.40
2019-02-27T21:43:56.651Z,42.23
2019-02-27T21:46:59.402Z,41.07
2019-02-27T21:50:03.667Z,42.07
2019-02-27T21:53:06.360Z,39.80
2019-02-27T21:56:08.202Z,40.17
2019-02-27T21:59:10.149Z,39.73
2019-02-27T22:02:12.056Z,41.43
2019-02-27T22:05:18.500Z,45.10
2019-02-27T22:08:17.998Z,43.33
2019-02-27T22:11:20.009Z,41.57
2019-02-27T22:14:24.951Z,43.37
2019-02-27T22:17:26.982Z,43.27
2019-02-27T22:20:28.867Z,39.20
2019-02-27T22:23:30.769Z,42.80
2019-02-27T22:26:34.175Z,44.57
2019-02-27T22:29:36.614Z,43.30
2019-02-27T22:32:38.559Z,46.87
2019-02-27T22:35:40.495Z,44.13
2019-02-27T22:38:42.446Z,41.73
2019-02-27T22:41:44.373Z,43.27
2019-02-27T22:44:48.157Z,41.30
2019-02-27T22:47:50.294Z,40.47
2019-02-27T22:50:53.327Z,41.13
2019-02-27T22:53:55.219Z,41.27
2019-02-27T22:56:57.174Z,38.63
2019-02-27T22:59:59.064Z,39.63
2019-02-27T23:03:01.127Z,36.03
2019-02-27T23:06:04.292Z,35.80
2019-02-27T23:09:08.224Z,34.60
2019-02-27T23:12:10.939Z,36.03
2019-02-27T23:15:13.119Z,36.30
2019-02-27T23:18:15.133Z,36.40
2019-02-27T23:21:17.373Z,38.87
2019-02-27T23:24:19.305Z,35.63
2019-02-27T23:27:21.304Z,36.90
2019-02-27T23:30:23.212Z,38.63
2019-02-27T23:33:25.069Z,38.80
2019-02-27T23:36:27.019Z,36.90
2019-02-27T23:39:28.995Z,36.87
2019-02-27T23:42:31.796Z,37.53
2019-02-27T23:45:33.722Z,40.40
2019-02-27T23:48:36.741Z,37.67
2019-02-27T23:51:38.908Z,33.23
2019-02-27T23:54:40.903Z,33.27
2019-02-27T23:57:42.885Z,34.53
